createdAt,value
2023-05-08T00:01:17.990Z,3.94
2023-05-08T00:03:44.589Z,3.88
2023-05-08T00:06:11.238Z,3.81
2023-05-08T00:08:37.735Z,3.83
2023-05-08T00:11:04.262Z,3.76
2023-05-08T00:13:30.738Z,3.66
2023-05-08T00:15:57.258Z,3.61
2023-05-08T00:18:23.862Z,3.62
2023-05-08T00:20:50.398Z,3.73
2023-05-08T00:23:16.890Z,3.68
2023-05-08T00:25:43.394Z,3.64
2023-05-08T00:28:09.880Z,3.61
2023-05-08T00:30:36.466Z,3.69
2023-05-08T00:33:02.993Z,3.57
2023-05-08T00:35:29.558Z,3.53
2023-05-08T00:37:56.277Z,3.54
2023-05-08T00:40:22.821Z,3.52
2023-05-08T00:42:49.255Z,3.40
2023-05-08T00:45:15.717Z,3.40
2023-05-08T00:47:42.607Z,3.33
2023-05-08T00:50:10.587Z,3.36
2023-05-08T00:52:37.625Z,3.37
2023-05-08T00:55:05.148Z,3.33
2023-05-08T00:57:34.487Z,3.26
2023-05-08T01:00:01.813Z,3.26
2023-05-08T01:02:31.248Z,3.17
2023-05-08T01:04:58.003Z,3.20
2023-05-08T01:07:24.583Z,3.15
2023-05-08T01:09:51.017Z,3.12
2023-05-08T01:12:28.768Z,3.13
2023-05-08T01:15:06.554Z,3.24
2023-05-08T01:18:00.910Z,3.16
2023-05-08T01:20:45.862Z,3.19
2023-05-08T01:23:34.173Z,3.10
2023-05-08T01:26:19.203Z,3.11
2023-05-08T01:28:55.020Z,3.05
2023-05-08T01:31:39.927Z,2.99
2023-05-08T01:34:09.188Z,2.97
2023-05-08T01:37:03.881Z,2.90
2023-05-08T01:39:39.984Z,2.90
2023-05-08T01:42:13.046Z,2.88
2023-05-08T01:44:44.226Z,2.82
2023-05-08T01:47:11.853Z,2.79
2023-05-08T01:50:02.165Z,2.81
2023-05-08T01:52:33.328Z,2.65
2023-05-08T01:55:04.054Z,2.54
2023-05-08T01:57:33.515Z,2.53
2023-05-08T02:00:01.246Z,2.56
2023-05-08T02:02:30.221Z,2.61
2023-05-08T02:04:57.379Z,2.61
2023-05-08T02:07:24.710Z,2.52
2023-05-08T02:09:51.801Z,2.48
2023-05-08T02:12:18.940Z,2.45
2023-05-08T02:14:47.367Z,2.36
2023-05-08T02:17:16.392Z,2.35
2023-05-08T02:19:44.117Z,2.39
2023-05-08T02:22:10.831Z,2.40
2023-05-08T02:24:38.565Z,2.37
2023-05-08T02:27:06.024Z,2.30
2023-05-08T02:29:32.699Z,2.32
2023-05-08T02:32:01.191Z,2.30
2023-05-08T02:34:28.423Z,2.32
2023-05-08T02:36:55.044Z,2.30
2023-05-08T02:39:25.940Z,2.28
2023-05-08T02:41:52.475Z,2.28
2023-05-08T02:44:19.215Z,2.23
2023-05-08T02:46:54.098Z,2.22
2023-05-08T02:49:33.606Z,2.20
2023-05-08T02:52:11.521Z,2.20
2023-05-08T02:54:56.184Z,2.21
2023-05-08T02:57:38.000Z,2.22
2023-05-08T03:00:27.904Z,2.22
2023-05-08T03:03:13.235Z,2.21
2023-05-08T03:05:43.475Z,2.26
2023-05-08T03:08:19.842Z,2.24
2023-05-08T03:10:49.988Z,2.24
2023-05-08T03:13:17.057Z,2.17
2023-05-08T03:15:46.991Z,2.21
2023-05-08T03:18:16.155Z,2.16
2023-05-08T03:20:48.170Z,2.20
2023-05-08T03:23:15.820Z,2.23
2023-05-08T03:25:43.273Z,2.23
2023-05-08T03:28:10.278Z,2.35
2023-05-08T03:30:38.028Z,2.40
2023-05-08T03:33:05.699Z,2.29
2023-05-08T03:35:32.428Z,2.35
2023-05-08T03:37:59.423Z,2.46
2023-05-08T03:40:27.484Z,2.41
2023-05-08T03:42:54.145Z,2.45
2023-05-08T03:45:20.754Z,2.33
2023-05-08T03:47:48.067Z,2.52
2023-05-08T03:50:15.837Z,2.58
2023-05-08T03:52:42.642Z,2.65
2023-05-08T03:55:09.630Z,2.72
2023-05-08T03:57:46.101Z,2.79
2023-05-08T04:00:49.748Z,2.85
2023-05-08T04:03:25.703Z,2.98
2023-05-08T04:06:01.093Z,3.15
2023-05-08T04:08:32.401Z,3.24
2023-05-08T04:11:18.392Z,3.40
2023-05-08T04:13:50.503Z,3.56
2023-05-08T04:16:21.281Z,3.48
2023-05-08T04:18:49.892Z,3.48
2023-05-08T04:21:20.617Z,3.53
2023-05-08T04:23:50.618Z,3.64
2023-05-08T04:26:18.235Z,3.79
2023-05-08T04:28:46.760Z,3.88
2023-05-08T04:31:14.754Z,4.02
2023-05-08T04:33:43.179Z,4.16
2023-05-08T04:36:13.637Z,4.31
2023-05-08T04:38:40.958Z,4.43
2023-05-08T04:41:07.996Z,4.55
2023-05-08T04:43:35.069Z,4.63
2023-05-08T04:46:01.822Z,4.78
2023-05-08T04:48:28.523Z,4.92
2023-05-08T04:50:54.984Z,5.14
2023-05-08T04:53:21.419Z,5.20
2023-05-08T04:55:47.866Z,5.38
2023-05-08T04:58:14.333Z,5.48
2023-05-08T05:00:40.800Z,5.57
2023-05-08T05:03:07.402Z,5.81
2023-05-08T05:05:37.669Z,5.89
2023-05-08T05:08:05.385Z,6.00
2023-05-08T05:10:31.853Z,6.10
2023-05-08T05:12:58.373Z,6.16
2023-05-08T05:15:24.878Z,6.44
2023-05-08T05:17:51.404Z,6.54
2023-05-08T05:20:18.046Z,6.72
2023-05-08T05:22:44.463Z,6.73
2023-05-08T05:25:11.775Z,6.73
2023-05-08T05:27:38.534Z,7.01
2023-05-08T05:30:05.628Z,7.23
2023-05-08T05:32:32.343Z,7.35
2023-05-08T05:34:58.838Z,7.46
2023-05-08T05:37:25.293Z,7.63
2023-05-08T05:39:51.744Z,7.81
2023-05-08T05:42:18.332Z,8.01
2023-05-08T05:44:45.054Z,8.10
2023-05-08T05:47:11.964Z,8.45
2023-05-08T05:49:39.953Z,8.88
2023-05-08T05:52:06.777Z,10.19
2023-05-08T05:54:33.651Z,10.86
2023-05-08T05:57:00.166Z,11.37
2023-05-08T05:59:26.905Z,12.27
2023-05-08T06:01:53.567Z,12.67
2023-05-08T06:04:20.384Z,13.01
2023-05-08T06:06:47.306Z,13.25
2023-05-08T06:09:13.846Z,13.70
2023-05-08T06:11:40.653Z,14.33
2023-05-08T06:14:07.307Z,15.47
2023-05-08T06:16:35.548Z,16.22
2023-05-08T06:19:02.169Z,16.16
2023-05-08T06:21:28.798Z,16.90
2023-05-08T06:23:55.687Z,16.46
2023-05-08T06:26:23.578Z,16.51
2023-05-08T06:28:50.314Z,17.90
2023-05-08T06:31:16.896Z,17.33
2023-05-08T06:33:43.435Z,18.02
2023-05-08T06:36:10.292Z,18.24
2023-05-08T06:38:37.028Z,18.05
2023-05-08T06:41:03.550Z,17.92
2023-05-08T06:43:30.693Z,18.48
2023-05-08T06:45:57.338Z,17.50
2023-05-08T06:48:28.901Z,19.47
2023-05-08T06:50:56.378Z,20.22
2023-05-08T06:53:22.945Z,19.30
2023-05-08T06:55:49.451Z,18.44
2023-05-08T06:58:16.034Z,18.41
2023-05-08T07:00:42.813Z,19.59
2023-05-08T07:03:09.426Z,18.49
2023-05-08T07:05:36.138Z,19.38
2023-05-08T07:08:02.622Z,21.76
2023-05-08T07:10:29.264Z,21.61
2023-05-08T07:12:55.845Z,22.08
2023-05-08T07:15:26.585Z,22.44
2023-05-08T07:17:53.942Z,22.79
2023-05-08T07:20:21.482Z,23.52
2023-05-08T07:22:48.199Z,23.50
2023-05-08T07:25:14.845Z,23.15
2023-05-08T07:27:42.011Z,22.31
2023-05-08T07:30:09.133Z,22.03
2023-05-08T07:32:36.161Z,19.83
2023-05-08T07:35:03.684Z,22.61
2023-05-08T07:37:30.277Z,22.15
2023-05-08T07:39:56.835Z,21.29
2023-05-08T07:42:23.353Z,20.82
2023-05-08T07:44:54.972Z,19.41
2023-05-08T07:47:22.148Z,17.72
2023-05-08T07:49:48.682Z,17.08
2023-05-08T07:52:15.221Z,16.80
2023-05-08T07:54:41.834Z,16.85
2023-05-08T07:57:08.338Z,16.78
2023-05-08T07:59:34.810Z,17.22
2023-05-08T08:02:01.392Z,16.90
2023-05-08T08:04:28.130Z,16.58
2023-05-08T08:06:55.250Z,17.04
2023-05-08T08:09:21.799Z,16.93
2023-05-08T08:11:48.306Z,17.04
2023-05-08T08:14:14.820Z,16.90
2023-05-08T08:16:42.562Z,15.94
2023-05-08T08:19:09.150Z,15.68
2023-05-08T08:21:35.636Z,15.29
2023-05-08T08:24:02.161Z,15.31
2023-05-08T08:26:28.777Z,15.48
2023-05-08T08:28:55.230Z,15.62
2023-05-08T08:31:21.751Z,16.12
2023-05-08T08:33:48.244Z,15.95
2023-05-08T08:36:15.284Z,15.65
2023-05-08T08:38:42.297Z,15.79
2023-05-08T08:41:08.858Z,14.76
2023-05-08T08:43:35.517Z,15.19
2023-05-08T08:46:13.110Z,15.73
2023-05-08T08:48:44.390Z,15.30
2023-05-08T08:51:32.103Z,15.68
2023-05-08T08:54:13.102Z,15.88
2023-05-08T08:56:42.995Z,15.11
2023-05-08T08:59:11.563Z,15.24
2023-05-08T09:01:39.845Z,14.80
2023-05-08T09:04:06.601Z,14.83
2023-05-08T09:06:36.568Z,14.26
2023-05-08T09:09:03.723Z,14.32
2023-05-08T09:11:30.361Z,14.55
2023-05-08T09:13:58.926Z,14.35
2023-05-08T09:16:26.073Z,14.43
2023-05-08T09:18:52.578Z,14.50
2023-05-08T09:21:19.692Z,14.46
2023-05-08T09:23:56.965Z,14.27
2023-05-08T09:26:32.426Z,13.68
2023-05-08T09:29:18.203Z,14.38
2023-05-08T09:31:46.828Z,14.93
2023-05-08T09:34:25.302Z,14.61
2023-05-08T09:36:51.864Z,14.61
2023-05-08T09:39:25.533Z,14.26
2023-05-08T09:42:02.368Z,14.53
2023-05-08T09:44:29.266Z,14.70
2023-05-08T09:47:20.487Z,14.80
2023-05-08T09:50:00.299Z,15.17
2023-05-08T09:52:28.313Z,15.48
2023-05-08T09:54:58.918Z,15.15
2023-05-08T09:57:29.392Z,14.68
2023-05-08T10:00:13.228Z,14.43
2023-05-08T10:02:41.967Z,14.35
2023-05-08T10:05:28.004Z,14.35
2023-05-08T10:07:54.732Z,14.07
2023-05-08T10:10:30.531Z,14.20
2023-05-08T10:12:58.533Z,14.27
2023-05-08T10:15:29.128Z,14.47
2023-05-08T10:18:04.713Z,14.85
2023-05-08T10:20:31.486Z,14.26
2023-05-08T10:22:59.069Z,14.27
2023-05-08T10:25:26.364Z,14.63
2023-05-08T10:27:58.083Z,15.06
2023-05-08T10:30:26.526Z,15.27
2023-05-08T10:32:58.421Z,15.18
2023-05-08T10:35:25.525Z,15.05
2023-05-08T10:37:52.363Z,14.76
2023-05-08T10:40:21.351Z,14.72
2023-05-08T10:42:48.374Z,15.14
2023-05-08T10:45:15.314Z,15.05
2023-05-08T10:48:03.973Z,14.94
2023-05-08T10:50:44.648Z,14.63
2023-05-08T10:53:16.681Z,14.91
2023-05-08T10:55:46.449Z,15.35
2023-05-08T10:58:15.327Z,15.03
2023-05-08T11:00:57.186Z,15.36
2023-05-08T11:03:32.179Z,15.44
2023-05-08T11:06:00.591Z,15.80
2023-05-08T11:08:28.375Z,15.78
2023-05-08T11:11:05.092Z,15.51
2023-05-08T11:13:36.419Z,15.82
2023-05-08T11:16:03.969Z,15.59
2023-05-08T11:18:45.693Z,15.37
2023-05-08T11:21:16.278Z,15.46
2023-05-08T11:23:42.954Z,15.30
2023-05-08T11:26:14.025Z,15.18
2023-05-08T11:28:56.879Z,15.11
2023-05-08T11:31:24.109Z,15.36
2023-05-08T11:33:50.700Z,15.50
2023-05-08T11:36:22.636Z,15.50
2023-05-08T11:39:16.075Z,15.49
2023-05-08T11:41:42.797Z,15.60
2023-05-08T11:44:22.709Z,15.45
2023-05-08T11:46:54.249Z,15.46
2023-05-08T11:49:26.280Z,14.89
2023-05-08T11:51:58.601Z,14.93
2023-05-08T11:54:25.851Z,15.32
2023-05-08T11:56:57.083Z,15.80
2023-05-08T11:59:23.676Z,16.10
2023-05-08T12:02:06.962Z,15.52
2023-05-08T12:04:46.643Z,15.31
2023-05-08T12:07:13.656Z,15.52
2023-05-08T12:09:40.375Z,15.67
2023-05-08T12:12:07.224Z,15.89
2023-05-08T12:14:34.673Z,16.08
2023-05-08T12:17:02.689Z,15.69
2023-05-08T12:19:29.232Z,15.73
2023-05-08T12:21:56.911Z,16.20
2023-05-08T12:24:24.250Z,16.29
2023-05-08T12:26:55.523Z,16.59
2023-05-08T12:29:22.754Z,16.78
2023-05-08T12:31:49.473Z,16.97
2023-05-08T12:34:16.133Z,16.13
2023-05-08T12:36:42.645Z,16.42
2023-05-08T12:39:16.681Z,16.27
2023-05-08T12:41:50.506Z,16.10
2023-05-08T12:44:21.506Z,15.50
2023-05-08T12:46:53.350Z,15.47
2023-05-08T12:49:32.662Z,15.91
2023-05-08T12:52:09.598Z,16.26
2023-05-08T12:54:37.981Z,16.29
2023-05-08T12:57:14.343Z,16.21
2023-05-08T12:59:41.495Z,16.30
2023-05-08T13:02:23.648Z,15.87
2023-05-08T13:04:54.562Z,16.22
2023-05-08T13:07:21.383Z,16.22
2023-05-08T13:10:03.666Z,16.23
2023-05-08T13:12:30.994Z,16.54
2023-05-08T13:14:57.734Z,16.80
2023-05-08T13:17:24.294Z,17.06
2023-05-08T13:19:50.885Z,16.77
2023-05-08T13:22:17.463Z,17.20
2023-05-08T13:24:44.235Z,17.24
2023-05-08T13:27:10.749Z,17.03
2023-05-08T13:29:37.252Z,16.43
2023-05-08T13:32:04.187Z,16.36
2023-05-08T13:34:30.677Z,16.60
2023-05-08T13:36:57.423Z,16.88
2023-05-08T13:39:23.906Z,17.19
2023-05-08T13:41:50.437Z,16.79
2023-05-08T13:44:16.891Z,17.34
2023-05-08T13:46:43.403Z,17.06
2023-05-08T13:49:10.156Z,16.75
2023-05-08T13:51:36.754Z,16.53
2023-05-08T13:54:03.436Z,16.50
2023-05-08T13:56:29.933Z,16.91
2023-05-08T13:58:56.483Z,17.34
2023-05-08T14:01:26.909Z,17.59
2023-05-08T14:03:55.000Z,17.58
2023-05-08T14:06:21.859Z,17.06
2023-05-08T14:08:50.993Z,17.04
2023-05-08T14:11:18.741Z,16.82
2023-05-08T14:13:45.296Z,16.60
2023-05-08T14:16:14.381Z,16.50
2023-05-08T14:18:41.104Z,16.79
2023-05-08T14:21:07.744Z,16.71
2023-05-08T14:23:35.585Z,16.48
2023-05-08T14:26:02.205Z,16.54
2023-05-08T14:28:28.714Z,16.79
2023-05-08T14:30:56.009Z,17.03
2023-05-08T14:33:22.625Z,17.62
2023-05-08T14:35:49.106Z,16.76
2023-05-08T14:38:15.626Z,16.22
2023-05-08T14:40:42.097Z,16.59
2023-05-08T14:43:08.611Z,16.90
2023-05-08T14:45:35.292Z,17.68
2023-05-08T14:48:01.789Z,17.42
2023-05-08T14:50:28.469Z,17.27
2023-05-08T14:52:55.410Z,17.19
2023-05-08T14:55:22.313Z,17.33
2023-05-08T14:57:51.624Z,16.89
2023-05-08T15:00:18.601Z,16.78
2023-05-08T15:02:45.325Z,16.13
2023-05-08T15:05:19.165Z,16.47
2023-05-08T15:07:46.259Z,16.40
2023-05-08T15:10:13.529Z,16.15
2023-05-08T15:12:40.060Z,16.05
2023-05-08T15:15:07.041Z,16.23
2023-05-08T15:17:36.416Z,16.74
2023-05-08T15:20:04.032Z,17.01
2023-05-08T15:22:30.489Z,16.81
2023-05-08T15:25:02.129Z,16.73
2023-05-08T15:27:29.457Z,16.93
2023-05-08T15:29:56.197Z,16.90
2023-05-08T15:32:22.721Z,16.92
2023-05-08T15:34:49.190Z,16.35
2023-05-08T15:37:15.889Z,15.80
2023-05-08T15:39:43.278Z,15.63
2023-05-08T15:42:09.908Z,15.62
2023-05-08T15:44:54.053Z,15.43
2023-05-08T15:47:23.194Z,15.33
2023-05-08T15:49:50.687Z,15.40
2023-05-08T15:52:18.737Z,15.28
2023-05-08T15:54:46.315Z,14.94
2023-05-08T15:57:13.003Z,15.25
2023-05-08T15:59:39.676Z,15.50
2023-05-08T16:02:06.474Z,15.54
2023-05-08T16:04:33.072Z,15.79
2023-05-08T16:07:00.231Z,15.86
2023-05-08T16:09:26.814Z,15.99
2023-05-08T16:11:53.386Z,15.22
2023-05-08T16:14:20.145Z,15.20
2023-05-08T16:16:46.637Z,15.33
2023-05-08T16:19:13.316Z,15.33
2023-05-08T16:21:39.777Z,15.71
2023-05-08T16:24:06.602Z,15.89
2023-05-08T16:26:33.062Z,15.82
2023-05-08T16:28:59.499Z,16.02
2023-05-08T16:31:27.322Z,15.95
2023-05-08T16:33:53.969Z,15.89
2023-05-08T16:36:20.568Z,15.95
2023-05-08T16:38:47.036Z,15.93
2023-05-08T16:41:13.559Z,15.76
2023-05-08T16:43:40.045Z,15.47
2023-05-08T16:46:07.337Z,15.20
2023-05-08T16:48:34.284Z,14.95
2023-05-08T16:51:00.731Z,14.97
2023-05-08T16:53:27.412Z,14.72
2023-05-08T16:55:54.575Z,14.48
2023-05-08T16:58:22.810Z,14.49
2023-05-08T17:00:49.586Z,14.25
2023-05-08T17:03:16.240Z,14.15
2023-05-08T17:05:42.854Z,14.10
2023-05-08T17:08:11.592Z,14.19
2023-05-08T17:10:39.365Z,14.13
2023-05-08T17:13:05.880Z,14.16
2023-05-08T17:15:32.489Z,14.08
2023-05-08T17:17:59.072Z,14.12
2023-05-08T17:20:26.197Z,13.95
2023-05-08T17:22:53.711Z,13.98
2023-05-08T17:25:22.283Z,13.90
2023-05-08T17:27:48.842Z,13.81
2023-05-08T17:30:16.885Z,13.78
2023-05-08T17:32:43.644Z,13.77
2023-05-08T17:35:10.389Z,13.77
2023-05-08T17:37:37.231Z,13.65
2023-05-08T17:40:03.962Z,13.47
2023-05-08T17:42:30.437Z,13.39
2023-05-08T17:44:57.149Z,13.36
2023-05-08T17:47:23.751Z,13.29
2023-05-08T17:49:50.512Z,13.18
2023-05-08T17:52:17.016Z,13.19
2023-05-08T17:54:43.624Z,12.95
2023-05-08T17:57:10.086Z,12.90
2023-05-08T17:59:36.529Z,12.78
2023-05-08T18:02:03.184Z,12.72
2023-05-08T18:04:29.756Z,12.61
2023-05-08T18:06:56.248Z,12.48
2023-05-08T18:09:22.879Z,12.42
2023-05-08T18:11:49.394Z,12.40
2023-05-08T18:14:15.993Z,12.42
2023-05-08T18:16:42.532Z,12.35
2023-05-08T18:19:09.065Z,12.34
2023-05-08T18:21:35.731Z,12.21
2023-05-08T18:24:02.318Z,12.14
2023-05-08T18:26:28.831Z,12.07
2023-05-08T18:28:55.380Z,12.08
2023-05-08T18:31:21.922Z,12.00
2023-05-08T18:33:48.461Z,11.96
2023-05-08T18:36:15.162Z,11.89
2023-05-08T18:38:42.074Z,11.86
2023-05-08T18:41:08.568Z,11.77
2023-05-08T18:43:35.121Z,11.74
2023-05-08T18:46:08.575Z,11.66
2023-05-08T18:48:35.570Z,11.56
2023-05-08T18:51:02.306Z,11.49
2023-05-08T18:53:30.486Z,11.36
2023-05-08T18:55:57.091Z,11.33
2023-05-08T18:58:23.628Z,11.25
2023-05-08T19:00:50.284Z,11.33
2023-05-08T19:03:18.410Z,11.23
2023-05-08T19:05:45.038Z,11.19
2023-05-08T19:08:13.142Z,11.14
2023-05-08T19:10:39.663Z,11.06
2023-05-08T19:13:06.281Z,10.97
2023-05-08T19:15:32.951Z,10.82
2023-05-08T19:17:59.445Z,10.76
2023-05-08T19:20:26.154Z,10.75
2023-05-08T19:22:52.722Z,10.74
2023-05-08T19:25:19.232Z,10.78
2023-05-08T19:27:46.090Z,10.62
2023-05-08T19:30:13.098Z,10.50
2023-05-08T19:32:39.669Z,10.35
2023-05-08T19:35:06.575Z,10.33
2023-05-08T19:37:33.044Z,10.29
2023-05-08T19:39:59.533Z,10.38
2023-05-08T19:42:26.233Z,10.38
2023-05-08T19:44:52.738Z,10.30
2023-05-08T19:47:19.277Z,10.23
2023-05-08T19:49:45.773Z,10.10
2023-05-08T19:52:12.479Z,10.02
2023-05-08T19:54:38.983Z,9.84
2023-05-08T19:57:05.447Z,9.75
2023-05-08T19:59:32.059Z,9.86
2023-05-08T20:01:58.680Z,9.86
2023-05-08T20:04:25.262Z,9.81
2023-05-08T20:06:51.776Z,9.74
2023-05-08T20:09:18.305Z,9.66
2023-05-08T20:11:44.953Z,9.56
2023-05-08T20:14:11.418Z,9.47
2023-05-08T20:16:37.936Z,9.48
2023-05-08T20:19:04.399Z,9.42
2023-05-08T20:21:32.347Z,9.65
2023-05-08T20:23:59.275Z,9.51
2023-05-08T20:26:27.114Z,9.33
2023-05-08T20:28:53.650Z,9.26
2023-05-08T20:31:20.191Z,9.20
2023-05-08T20:33:46.639Z,9.17
2023-05-08T20:36:13.137Z,9.13
2023-05-08T20:38:39.658Z,9.11
2023-05-08T20:41:06.192Z,9.06
2023-05-08T20:43:32.684Z,8.99
2023-05-08T20:45:59.160Z,8.97
2023-05-08T20:48:25.775Z,8.87
2023-05-08T20:50:52.207Z,8.81
2023-05-08T20:53:18.828Z,8.75
2023-05-08T20:55:45.381Z,8.72
2023-05-08T20:58:11.855Z,8.66
2023-05-08T21:00:38.369Z,8.59
2023-05-08T21:03:04.892Z,8.56
2023-05-08T21:05:31.493Z,8.43
2023-05-08T21:08:02.459Z,8.44
2023-05-08T21:10:31.182Z,8.40
2023-05-08T21:12:57.931Z,8.33
2023-05-08T21:15:24.446Z,8.23
2023-05-08T21:17:50.934Z,8.16
2023-05-08T21:20:18.093Z,8.35
2023-05-08T21:22:46.129Z,8.37
2023-05-08T21:25:14.891Z,8.31
2023-05-08T21:27:42.533Z,8.23
2023-05-08T21:30:09.985Z,8.19
2023-05-08T21:32:36.442Z,8.15
2023-05-08T21:35:03.863Z,8.04
2023-05-08T21:37:31.539Z,8.08
2023-05-08T21:39:57.986Z,7.92
2023-05-08T21:42:24.642Z,7.91
2023-05-08T21:44:51.216Z,7.81
2023-05-08T21:47:17.682Z,7.73
2023-05-08T21:49:44.187Z,7.64
2023-05-08T21:52:10.661Z,7.60
2023-05-08T21:54:37.108Z,7.50
2023-05-08T21:57:03.813Z,7.51
2023-05-08T21:59:30.271Z,7.54
2023-05-08T22:01:56.779Z,7.51
2023-05-08T22:04:23.266Z,7.44
2023-05-08T22:06:49.750Z,7.42
2023-05-08T22:09:16.180Z,7.39
2023-05-08T22:11:42.660Z,7.29
2023-05-08T22:14:09.093Z,7.24
2023-05-08T22:16:35.586Z,7.21
2023-05-08T22:19:02.124Z,7.11
2023-05-08T22:21:30.072Z,7.09
2023-05-08T22:23:57.075Z,7.03
2023-05-08T22:26:23.963Z,6.96
2023-05-08T22:28:51.050Z,6.92
2023-05-08T22:31:17.573Z,6.93
2023-05-08T22:33:44.156Z,6.94
2023-05-08T22:36:10.719Z,6.94
2023-05-08T22:38:37.295Z,7.00
2023-05-08T22:41:05.738Z,7.02
2023-05-08T22:43:32.631Z,7.00
2023-05-08T22:45:59.353Z,6.95
2023-05-08T22:48:25.858Z,6.97
2023-05-08T22:50:53.030Z,6.94
2023-05-08T22:53:19.539Z,6.90
2023-05-08T22:55:46.165Z,6.89
2023-05-08T22:58:12.608Z,6.87
2023-05-08T23:00:39.136Z,6.88
2023-05-08T23:03:05.743Z,6.82
2023-05-08T23:05:32.227Z,6.78
2023-05-08T23:07:58.868Z,6.69
2023-05-08T23:10:25.331Z,6.68
2023-05-08T23:12:51.832Z,6.58
2023-05-08T23:15:18.489Z,6.56
2023-05-08T23:17:45.211Z,6.56
2023-05-08T23:20:12.022Z,6.59
2023-05-08T23:22:38.463Z,6.58
2023-05-08T23:25:05.456Z,6.57
2023-05-08T23:27:31.906Z,6.49
2023-05-08T23:29:58.384Z,6.49
2023-05-08T23:32:25.182Z,6.40
2023-05-08T23:34:51.688Z,6.46
2023-05-08T23:37:18.135Z,6.51
2023-05-08T23:39:44.620Z,6.57
2023-05-08T23:42:11.300Z,6.55
2023-05-08T23:44:37.742Z,6.63
2023-05-08T23:47:04.323Z,6.70
2023-05-08T23:49:31.014Z,6.79
2023-05-08T23:51:57.747Z,6.80
2023-05-08T23:54:24.229Z,6.80
2023-05-08T23:56:50.831Z,6.72
2023-05-08T23:59:17.315Z,6.69
